Time;durP1;ratioP1;P1;durP2;ratioP2;P2;SDS_P1;SDS_P2;PMS_P1;PMS_P2;Temp;Humidity;BMP_temperature;BMP_pressure;BME280_temperature;BME280_humidity;BME280_pressure;Samples;Min_cycle;Max_cycle;Signal;HPM_P1;HPM_P2
2021/09/01 12:37:44;;;;;;;8.98;7.82;;;;;;;;;;6225241;22;20441;-57
2021/09/01 12:40:12;;;;;;;9.55;8.13;;;;;;;;;;6300127;22;20743;-61
2021/09/01 12:42:40;;;;;;;8.85;7.50;;;;;;;;;;6299562;22;21118;-58
2021/09/01 12:45:15;;;;;;;8.70;7.63;;;;;;;;;;6300759;22;20408;-60
2021/09/01 12:47:53;;;;;;;8.85;7.40;;;;;;;;;;6300087;22;20448;-59
2021/09/01 12:50:19;;;;;;;8.90;8.00;;;;;;;;;;6273632;22;20867;-61
2021/09/01 12:52:48;;;;;;;8.70;7.70;;;;;;;;;;6300778;22;20375;-61
2021/09/01 12:55:15;;;;;;;9.43;7.70;;;;;;;;;;6300939;22;20331;-61
2021/09/01 12:57:41;;;;;;;11.13;7.70;;;;;;;;;;6301101;22;20459;-59
2021/09/01 13:00:07;;;;;;;10.13;7.85;;;;;;;;;;6273700;22;20346;-60
2021/09/01 13:02:35;;;;;;;10.23;7.70;;;;;;;;;;6273527;22;20454;-60
2021/09/01 13:05:01;;;;;;;9.30;7.30;;;;;;;;;;6300709;22;20342;-59
2021/09/01 13:07:27;;;;;;;9.40;7.30;;;;;;;;;;6300980;22;20763;-60
2021/09/01 13:09:53;;;;;;;9.13;7.50;;;;;;;;;;6299189;22;20335;-61
2021/09/01 13:12:19;;;;;;;8.55;7.40;;;;;;;;;;6272541;22;20708;-57
2021/09/01 13:14:45;;;;;;;8.65;7.35;;;;;;;;;;6301171;22;20410;-59
2021/09/01 13:17:11;;;;;;;8.23;7.07;;;;;;;;;;6301434;22;20674;-60
2021/09/01 13:19:38;;;;;;;8.73;7.28;;;;;;;;;;6301536;22;20338;-59
2021/09/01 13:22:04;;;;;;;9.45;7.25;;;;;;;;;;6301436;22;20331;-57
2021/09/01 13:24:31;;;;;;;8.98;6.90;;;;;;;;;;6274303;22;20778;-61
2021/09/01 13:26:57;;;;;;;8.20;7.03;;;;;;;;;;6303006;22;20379;-61
2021/09/01 13:29:26;;;;;;;7.65;6.60;;;;;;;;;;6302663;22;20378;-53
2021/09/01 13:31:52;;;;;;;8.52;7.18;;;;;;;;;;6303629;22;20442;-55
2021/09/01 13:34:18;;;;;;;7.82;7.03;;;;;;;;;;6274845;22;20347;-56
2021/09/01 13:36:44;;;;;;;7.80;6.85;;;;;;;;;;6301594;22;20335;-57
2021/09/01 13:39:10;;;;;;;8.02;6.75;;;;;;;;;;6322692;22;20384;-57
2021/09/01 13:41:36;;;;;;;7.57;6.72;;;;;;;;;;6333908;22;20367;-56
2021/09/01 13:44:02;;;;;;;7.57;6.78;;;;;;;;;;6333557;22;20700;-57
2021/09/01 13:46:28;;;;;;;8.68;7.13;;;;;;;;;;6305442;22;20373;-57
2021/09/01 13:49:00;;;;;;;8.70;7.20;;;;;;;;;;6333927;22;20549;-59
2021/09/01 13:51:29;;;;;;;7.90;6.90;;;;;;;;;;6304960;22;20466;-59
2021/09/01 13:53:55;;;;;;;8.35;6.68;;;;;;;;;;6304674;22;20804;-58
2021/09/01 13:56:22;;;;;;;8.90;7.30;;;;;;;;;;6305628;22;20404;-59
2021/09/01 13:58:48;;;;;;;7.75;6.95;;;;;;;;;;6333987;22;20390;-59
2021/09/01 14:01:15;;;;;;;8.93;7.22;;;;;;;;;;6334000;22;20329;-55
2021/09/01 14:03:44;;;;;;;8.20;7.30;;;;;;;;;;6333965;22;20341;-55
2021/09/01 14:06:10;;;;;;;7.72;6.90;;;;;;;;;;6306515;22;20379;-56
2021/09/01 14:08:36;;;;;;;7.87;7.07;;;;;;;;;;6333115;22;20518;-56
2021/09/01 14:11:02;;;;;;;8.60;7.30;;;;;;;;;;6332991;22;20595;-58
2021/09/01 14:13:28;;;;;;;8.10;7.05;;;;;;;;;;6333221;22;20337;-54
2021/09/01 14:15:55;;;;;;;8.32;6.95;;;;;;;;;;6333485;22;20603;-56
2021/09/01 14:18:22;;;;;;;8.98;7.40;;;;;;;;;;6333494;22;20364;-57
2021/09/01 14:20:49;;;;;;;8.23;7.22;;;;;;;;;;6332881;22;20355;-55
2021/09/01 14:23:16;;;;;;;9.73;7.37;;;;;;;;;;6333099;22;20649;-60
2021/09/01 14:25:42;;;;;;;9.18;7.00;;;;;;;;;;6305011;22;20501;-58
2021/09/01 14:28:08;;;;;;;7.88;6.97;;;;;;;;;;6332566;22;20844;-55
2021/09/01 14:30:37;;;;;;;9.60;7.20;;;;;;;;;;6333057;22;20349;-62
2021/09/01 14:33:03;;;;;;;8.20;7.00;;;;;;;;;;6305329;22;20344;-60
2021/09/01 14:35:29;;;;;;;7.78;7.00;;;;;;;;;;6305053;22;20337;-57
2021/09/01 14:37:55;;;;;;;7.78;6.93;;;;;;;;;;6331846;22;20504;-58
2021/09/01 14:40:22;;;;;;;8.65;6.80;;;;;;;;;;6332190;22;20344;-57
2021/09/01 14:42:48;;;;;;;7.95;6.80;;;;;;;;;;6305487;22;20393;-61
2021/09/01 14:45:14;;;;;;;8.73;7.05;;;;;;;;;;6304768;22;20800;-59
2021/09/01 14:47:40;;;;;;;8.30;7.38;;;;;;;;;;6303961;22;20385;-60
2021/09/01 14:50:09;;;;;;;8.13;6.82;;;;;;;;;;6333457;22;20352;-60
2021/09/01 14:52:35;;;;;;;8.23;7.03;;;;;;;;;;6305504;22;20790;-59
2021/09/01 14:55:01;;;;;;;8.50;6.90;;;;;;;;;;6332338;22;20329;-60
2021/09/01 14:57:27;;;;;;;8.13;7.10;;;;;;;;;;6333084;22;20325;-59
2021/09/01 14:59:53;;;;;;;8.38;6.85;;;;;;;;;;6305032;22;20341;-60
2021/09/01 15:02:19;;;;;;;8.00;6.95;;;;;;;;;;6333298;22;20403;-59
2021/09/01 15:04:46;;;;;;;9.90;7.55;;;;;;;;;;6332869;22;20329;-57
2021/09/01 15:07:12;;;;;;;9.82;7.93;;;;;;;;;;6332666;22;20380;-56
2021/09/01 15:09:38;;;;;;;9.95;8.80;;;;;;;;;;6332459;22;20330;-55
2021/09/01 15:12:04;;;;;;;11.25;8.23;;;;;;;;;;6305502;22;20349;-58
2021/09/01 15:14:33;;;;;;;10.13;8.07;;;;;;;;;;6304840;22;20345;-60
2021/09/01 15:17:00;;;;;;;9.48;7.80;;;;;;;;;;6333918;22;20353;-59
2021/09/01 15:19:27;;;;;;;10.13;7.90;;;;;;;;;;6306064;22;20444;-59
2021/09/01 15:21:53;;;;;;;8.95;7.70;;;;;;;;;;6305407;22;20426;-58
2021/09/01 15:24:19;;;;;;;9.07;7.95;;;;;;;;;;6278311;22;20428;-57
2021/09/01 15:26:45;;;;;;;9.45;7.68;;;;;;;;;;6332059;22;20388;-63
2021/09/01 15:29:11;;;;;;;9.40;7.70;;;;;;;;;;6332942;22;20341;-67
2021/09/01 15:31:41;;;;;;;8.25;7.20;;;;;;;;;;6333817;22;21132;-66
2021/09/01 15:34:07;;;;;;;10.38;7.80;;;;;;;;;;6332785;22;20348;-68
2021/09/01 15:36:35;;;;;;;9.30;7.57;;;;;;;;;;6332447;22;20333;-68
2021/09/01 15:39:01;;;;;;;8.30;7.50;;;;;;;;;;6333280;22;20469;-72
2021/09/01 15:41:27;;;;;;;8.43;7.53;;;;;;;;;;6333832;22;20341;-67
2021/09/01 15:43:53;;;;;;;8.07;7.10;;;;;;;;;;6332278;22;20341;-70
2021/09/01 15:46:20;;;;;;;8.82;7.35;;;;;;;;;;6332587;22;20359;-66
2021/09/01 15:49:01;;;;;;;8.70;7.38;;;;;;;;;;6332698;22;20396;-66
2021/09/01 15:51:28;;;;;;;8.07;7.10;;;;;;;;;;6332977;22;20408;-68
2021/09/01 15:53:54;;;;;;;8.80;7.10;;;;;;;;;;6305051;22;20670;-71
2021/09/01 15:56:21;;;;;;;8.05;7.10;;;;;;;;;;6332374;22;20630;-68
2021/09/01 15:58:48;;;;;;;8.13;7.30;;;;;;;;;;6331141;22;20333;-64
2021/09/01 16:01:16;;;;;;;8.63;7.05;;;;;;;;;;6332601;22;21050;-47
2021/09/01 16:03:42;;;;;;;8.40;7.30;;;;;;;;;;6305075;22;20348;-51
2021/09/01 16:06:09;;;;;;;8.60;7.23;;;;;;;;;;6332020;22;20336;-49
2021/09/01 16:08:35;;;;;;;9.50;7.60;;;;;;;;;;6331884;22;20371;-50
2021/09/01 16:11:01;;;;;;;9.60;7.90;;;;;;;;;;6303856;22;20410;-48
2021/09/01 16:13:32;;;;;;;8.98;7.47;;;;;;;;;;6332364;22;20329;-52
2021/09/01 16:16:02;;;;;;;9.07;7.35;;;;;;;;;;6303410;22;20781;-47
2021/09/01 16:18:28;;;;;;;9.63;8.18;;;;;;;;;;6332658;22;20400;-51
2021/09/01 16:20:56;;;;;;;8.77;7.88;;;;;;;;;;6331321;22;20502;-53
2021/09/01 16:23:25;;;;;;;9.07;8.03;;;;;;;;;;6303896;22;20345;-50
2021/09/01 16:25:51;;;;;;;9.38;8.38;;;;;;;;;;6331345;22;20322;-49
2021/09/01 16:28:18;;;;;;;10.25;8.25;;;;;;;;;;6332401;22;20376;-47
2021/09/01 16:30:46;;;;;;;8.68;7.70;;;;;;;;;;6332751;22;20379;-49
2021/09/01 16:33:17;;;;;;;11.02;8.40;;;;;;;;;;6331573;22;20348;-48
2021/09/01 16:35:47;;;;;;;10.07;8.93;;;;;;;;;;6303176;22;20349;-47
2021/09/01 16:38:19;;;;;;;9.90;8.38;;;;;;;;;;6303445;22;20469;-48
2021/09/01 16:40:54;;;;;;;10.50;9.27;;;;;;;;;;6304094;22;20809;-52
2021/09/01 16:43:31;;;;;;;9.50;8.23;;;;;;;;;;6331521;22;20334;-48
2021/09/01 16:45:57;;;;;;;9.52;8.27;;;;;;;;;;6332011;22;20390;-48
2021/09/01 16:48:25;;;;;;;9.55;8.45;;;;;;;;;;6303987;22;20480;-49
2021/09/01 16:50:52;;;;;;;10.35;8.20;;;;;;;;;;6332031;22;20334;-48
2021/09/01 16:53:23;;;;;;;9.73;7.72;;;;;;;;;;6331784;22;20340;-46
2021/09/01 16:55:50;;;;;;;10.23;7.97;;;;;;;;;;6304476;22;20352;-46
2021/09/01 16:58:18;;;;;;;10.40;8.10;;;;;;;;;;6304059;22;20348;-46
2021/09/01 17:00:46;;;;;;;10.13;8.38;;;;;;;;;;6305754;22;20773;-45
2021/09/01 17:03:18;;;;;;;9.65;8.20;;;;;;;;;;6307837;22;20431;-46
2021/09/01 17:05:45;;;;;;;10.40;8.35;;;;;;;;;;6305562;22;20441;-44
2021/09/01 17:08:13;;;;;;;9.02;7.90;;;;;;;;;;6333299;22;20448;-52
2021/09/01 17:10:40;;;;;;;9.30;7.88;;;;;;;;;;6333914;22;20338;-44
2021/09/01 17:13:06;;;;;;;9.45;8.40;;;;;;;;;;6333726;22;20745;-44
2021/09/01 17:15:35;;;;;;;9.43;7.93;;;;;;;;;;6332837;22;20501;-47
2021/09/01 17:18:28;;;;;;;8.77;7.83;;;;;;;;;;6305904;22;20352;-43
2021/09/01 17:20:54;;;;;;;9.80;8.23;;;;;;;;;;6332860;22;20754;-50
2021/09/01 17:23:20;;;;;;;10.68;8.25;;;;;;;;;;6305632;22;20444;-50
2021/09/01 17:25:50;;;;;;;9.73;8.18;;;;;;;;;;6332413;22;20440;-49
2021/09/01 17:28:19;;;;;;;9.20;7.80;;;;;;;;;;6305876;22;20406;-50
2021/09/01 17:30:49;;;;;;;11.55;8.15;;;;;;;;;;6306300;22;20802;-57
2021/09/01 17:33:15;;;;;;;9.45;8.20;;;;;;;;;;6305841;22;20805;-54
2021/09/01 17:35:44;;;;;;;9.20;8.15;;;;;;;;;;6305636;22;20341;-53
2021/09/01 17:38:10;;;;;;;10.15;8.30;;;;;;;;;;6333973;22;20452;-51
2021/09/01 17:40:40;;;;;;;9.32;8.30;;;;;;;;;;6332207;22;20457;-52
2021/09/01 17:43:07;;;;;;;8.82;7.75;;;;;;;;;;6303667;22;20355;-53
2021/09/01 17:45:34;;;;;;;9.95;8.65;;;;;;;;;;6330880;22;20329;-52
2021/09/01 17:48:00;;;;;;;9.70;8.18;;;;;;;;;;6331593;22;20369;-55
2021/09/01 17:50:29;;;;;;;9.23;7.95;;;;;;;;;;6331906;22;20508;-54
2021/09/01 17:52:58;;;;;;;9.82;8.43;;;;;;;;;;6304374;22;20348;-51
2021/09/01 17:55:25;;;;;;;10.60;8.27;;;;;;;;;;6301534;22;20365;-55
2021/09/01 17:57:51;;;;;;;10.63;8.45;;;;;;;;;;6302745;22;20357;-54
2021/09/01 18:00:17;;;;;;;10.23;8.27;;;;;;;;;;6305152;22;20344;-58
2021/09/01 18:02:43;;;;;;;9.90;7.97;;;;;;;;;;6305126;22;20375;-51
2021/09/01 18:05:10;;;;;;;8.90;8.00;;;;;;;;;;6333629;22;20325;-51
2021/09/01 18:07:37;;;;;;;14.05;11.25;;;;;;;;;;6334031;22;20430;-53
2021/09/01 18:10:03;;;;;;;13.38;10.85;;;;;;;;;;6305141;22;20392;-52
2021/09/01 18:12:29;;;;;;;11.82;9.77;;;;;;;;;;6333559;22;20336;-51
2021/09/01 18:14:55;;;;;;;13.02;9.30;;;;;;;;;;6333569;22;20325;-51
2021/09/01 18:17:22;;;;;;;10.73;9.30;;;;;;;;;;6333654;22;20377;-52
2021/09/01 18:19:48;;;;;;;9.90;8.37;;;;;;;;;;6305526;22;20499;-52
2021/09/01 18:22:15;;;;;;;11.40;8.48;;;;;;;;;;6332626;22;20340;-52
2021/09/01 18:24:41;;;;;;;10.48;8.60;;;;;;;;;;6305784;22;20398;-51
2021/09/01 18:27:08;;;;;;;10.95;8.57;;;;;;;;;;6305329;22;20537;-52
2021/09/01 18:29:36;;;;;;;11.18;8.30;;;;;;;;;;6333783;22;20344;-51
2021/09/01 18:32:03;;;;;;;11.27;8.45;;;;;;;;;;6333373;22;20332;-54
2021/09/01 18:34:29;;;;;;;9.90;8.40;;;;;;;;;;6333147;22;20333;-53
2021/09/01 18:36:56;;;;;;;9.60;8.43;;;;;;;;;;6333794;22;20345;-54
2021/09/01 18:39:22;;;;;;;10.13;8.53;;;;;;;;;;6305062;22;20373;-53
2021/09/01 18:41:48;;;;;;;9.87;8.50;;;;;;;;;;6332903;22;20781;-54
2021/09/01 18:44:17;;;;;;;9.05;8.02;;;;;;;;;;6332923;22;20805;-54
2021/09/01 18:46:43;;;;;;;9.50;7.90;;;;;;;;;;6331709;22;20674;-51
2021/09/01 18:49:11;;;;;;;10.15;8.15;;;;;;;;;;6333171;22;20344;-56
2021/09/01 18:51:43;;;;;;;9.60;8.17;;;;;;;;;;6305760;22;20360;-54
2021/09/01 18:54:09;;;;;;;10.55;8.15;;;;;;;;;;6332828;22;20812;-51
2021/09/01 18:56:35;;;;;;;11.20;8.07;;;;;;;;;;6305178;22;20417;-54
2021/09/01 18:59:01;;;;;;;9.65;8.25;;;;;;;;;;6333327;22;20345;-53
2021/09/01 19:01:38;;;;;;;8.98;7.80;;;;;;;;;;6332671;22;20357;-53
2021/09/01 19:04:04;;;;;;;9.30;8.30;;;;;;;;;;6332965;22;20337;-52
2021/09/01 19:06:35;;;;;;;11.60;8.80;;;;;;;;;;6304091;22;20661;-52
2021/09/01 19:09:03;;;;;;;9.82;8.00;;;;;;;;;;6305449;22;20415;-52
2021/09/01 19:11:31;;;;;;;11.13;8.45;;;;;;;;;;6333029;22;20330;-51
2021/09/01 19:14:02;;;;;;;10.02;8.48;;;;;;;;;;6332847;22;20333;-52
2021/09/01 19:16:28;;;;;;;11.05;8.43;;;;;;;;;;6304971;22;20782;-51
2021/09/01 19:18:55;;;;;;;10.65;8.27;;;;;;;;;;6332955;22;20754;-54
2021/09/01 19:21:24;;;;;;;10.23;8.68;;;;;;;;;;6305040;22;20344;-51
2021/09/01 19:23:51;;;;;;;9.43;7.90;;;;;;;;;;6305153;22;20428;-51
2021/09/01 19:26:20;;;;;;;9.75;8.10;;;;;;;;;;6305138;22;20353;-53
2021/09/01 19:28:47;;;;;;;9.52;8.23;;;;;;;;;;6332883;22;20388;-52
2021/09/01 19:31:18;;;;;;;9.13;8.00;;;;;;;;;;6304630;22;20337;-50
2021/09/01 19:33:45;;;;;;;9.15;7.78;;;;;;;;;;6332475;22;20789;-50
2021/09/01 19:36:15;;;;;;;9.38;8.15;;;;;;;;;;6305072;22;20349;-53
2021/09/01 19:38:41;;;;;;;11.07;8.25;;;;;;;;;;6325632;22;20376;-54
2021/09/01 19:41:07;;;;;;;9.73;8.10;;;;;;;;;;6333211;22;20408;-50
2021/09/01 19:43:38;;;;;;;9.25;7.78;;;;;;;;;;6304288;22;20448;-50
2021/09/01 19:46:07;;;;;;;9.65;8.02;;;;;;;;;;6332470;22;20325;-49
2021/09/01 19:48:36;;;;;;;11.90;8.57;;;;;;;;;;6304008;22;20475;-50
2021/09/01 19:51:05;;;;;;;9.07;8.10;;;;;;;;;;6333239;22;20344;-55
2021/09/01 19:53:34;;;;;;;10.73;8.48;;;;;;;;;;6333176;22;20328;-53
2021/09/01 19:56:02;;;;;;;9.37;8.23;;;;;;;;;;6304948;22;20352;-51
2021/09/01 19:58:33;;;;;;;9.70;8.27;;;;;;;;;;6305238;22;20450;-52
2021/09/01 20:01:02;;;;;;;9.63;8.25;;;;;;;;;;6304804;22;20376;-50
2021/09/01 20:03:29;;;;;;;10.18;8.30;;;;;;;;;;6304375;22;20426;-50
2021/09/01 20:05:55;;;;;;;9.48;8.30;;;;;;;;;;6304529;22;20337;-50
2021/09/01 20:08:21;;;;;;;9.07;8.10;;;;;;;;;;6331563;22;20409;-50
2021/09/01 20:10:48;;;;;;;9.55;8.18;;;;;;;;;;6332112;22;20341;-50
2021/09/01 20:13:18;;;;;;;9.52;8.27;;;;;;;;;;6332203;22;20349;-50
2021/09/01 20:15:50;;;;;;;9.45;8.20;;;;;;;;;;6305162;22;20908;-53
2021/09/01 20:18:18;;;;;;;13.32;8.75;;;;;;;;;;6305039;22;20352;-50
2021/09/01 20:20:49;;;;;;;10.52;8.65;;;;;;;;;;6332420;22;20339;-52
2021/09/01 20:23:16;;;;;;;11.23;8.77;;;;;;;;;;6304589;22;20349;-53
2021/09/01 20:25:45;;;;;;;10.30;8.60;;;;;;;;;;6305095;22;20349;-51
2021/09/01 20:28:11;;;;;;;11.23;8.63;;;;;;;;;;6304804;22;20385;-50
2021/09/01 20:30:37;;;;;;;10.02;7.75;;;;;;;;;;6332492;22;20340;-55
2021/09/01 20:33:04;;;;;;;10.27;8.05;;;;;;;;;;6332849;22;20328;-53
2021/09/01 20:35:30;;;;;;;10.07;8.50;;;;;;;;;;6304449;22;20817;-56
2021/09/01 20:37:58;;;;;;;10.15;8.93;;;;;;;;;;6331779;22;20455;-54
2021/09/01 20:40:25;;;;;;;9.80;8.10;;;;;;;;;;6332765;22;20745;-52
2021/09/01 20:42:53;;;;;;;11.10;8.82;;;;;;;;;;6331983;22;20447;-53
2021/09/01 20:45:22;;;;;;;11.30;8.38;;;;;;;;;;6331474;22;20332;-50
2021/09/01 20:47:52;;;;;;;11.48;8.80;;;;;;;;;;6332165;22;20369;-50
2021/09/01 20:50:19;;;;;;;11.00;8.43;;;;;;;;;;6331798;22;20349;-54
2021/09/01 20:52:46;;;;;;;10.50;8.60;;;;;;;;;;6332185;22;20332;-53
2021/09/01 20:55:12;;;;;;;10.25;8.98;;;;;;;;;;6303299;22;20379;-53
2021/09/01 20:57:40;;;;;;;10.15;8.60;;;;;;;;;;6304414;22;20333;-52
2021/09/01 21:00:07;;;;;;;9.98;8.38;;;;;;;;;;6304428;22;20752;-49
2021/09/01 21:02:34;;;;;;;10.57;9.00;;;;;;;;;;6303642;22;20360;-53
2021/09/01 21:05:00;;;;;;;9.52;8.40;;;;;;;;;;6305026;22;20351;-53
2021/09/01 21:07:27;;;;;;;10.35;8.85;;;;;;;;;;6332539;22;20455;-53
2021/09/01 21:09:55;;;;;;;11.50;8.65;;;;;;;;;;6332380;22;20356;-54
2021/09/01 21:12:21;;;;;;;10.50;8.65;;;;;;;;;;6332391;22;20386;-54
2021/09/01 21:14:47;;;;;;;10.50;8.27;;;;;;;;;;6331888;22;20753;-51
2021/09/01 21:17:18;;;;;;;9.98;8.27;;;;;;;;;;6332121;22;20368;-48
2021/09/01 21:19:46;;;;;;;9.60;8.32;;;;;;;;;;6331864;22;20377;-55
2021/09/01 21:22:25;;;;;;;11.07;8.90;;;;;;;;;;6331341;22;20361;-51
2021/09/01 21:24:53;;;;;;;9.50;8.18;;;;;;;;;;6304117;22;20364;-50
2021/09/01 21:27:24;;;;;;;10.20;8.18;;;;;;;;;;6331741;22;20369;-54
2021/09/01 21:29:55;;;;;;;9.38;7.93;;;;;;;;;;6332352;22;20442;-50
2021/09/01 21:32:25;;;;;;;8.70;7.78;;;;;;;;;;6303187;22;20428;-52
2021/09/01 21:34:53;;;;;;;11.43;8.00;;;;;;;;;;6330766;22;20735;-49
2021/09/01 21:37:21;;;;;;;9.02;7.78;;;;;;;;;;6303712;22;20361;-49
2021/09/01 21:39:47;;;;;;;8.55;7.65;;;;;;;;;;6303676;22;20372;-50
2021/09/01 21:42:16;;;;;;;10.70;7.67;;;;;;;;;;6331727;22;20353;-49
2021/09/01 21:44:43;;;;;;;11.23;8.40;;;;;;;;;;6303763;22;20402;-49
2021/09/01 21:47:12;;;;;;;9.85;7.82;;;;;;;;;;6305627;22;20632;-50
2021/09/01 21:49:40;;;;;;;9.57;7.63;;;;;;;;;;6333747;22;20353;-50
2021/09/01 21:52:10;;;;;;;9.02;7.45;;;;;;;;;;6334078;22;20382;-53
2021/09/01 21:54:37;;;;;;;9.23;7.30;;;;;;;;;;6305560;22;20865;-50
2021/09/01 21:57:04;;;;;;;10.20;7.45;;;;;;;;;;6305779;22;20788;-50
2021/09/01 21:59:30;;;;;;;8.80;7.13;;;;;;;;;;6333910;22;20326;-53
2021/09/01 22:01:56;;;;;;;10.07;7.47;;;;;;;;;;6333806;22;20417;-50
2021/09/01 22:04:22;;;;;;;8.80;7.57;;;;;;;;;;6333182;22;20599;-50
